Time;durP1;ratioP1;P1;durP2;ratioP2;P2;SDS_P1;SDS_P2;PMS_P1;PMS_P2;Temp;Humidity;BMP_temperature;BMP_pressure;BME280_temperature;BME280_humidity;BME280_pressure;Samples;Min_cycle;Max_cycle;Signal;HPM_P1;HPM_P2
2022/07/09 00:00:33;;;;;;;1.50;1.40;;;12.00;99.90;12.90;97672.00;;;;5047865;28;20250;-66
2022/07/09 00:03:21;;;;;;;5.53;1.67;;;12.00;99.90;13.00;97674.00;;;;5040297;28;20209;-68
2022/07/09 00:06:10;;;;;;;0.90;0.90;;;12.10;99.90;13.40;97674.00;;;;5049194;28;20201;-67
2022/07/09 00:08:59;;;;;;;2.10;1.50;;;12.10;99.90;13.70;97671.00;;;;5047713;28;20566;-67
2022/07/09 00:11:48;;;;;;;1.73;1.10;;;12.20;99.90;13.50;97673.00;;;;5047701;28;20200;-69
2022/07/09 00:14:37;;;;;;;2.30;1.10;;;12.30;99.90;12.70;97664.00;;;;5049285;28;20204;-68
2022/07/09 00:17:29;;;;;;;1.73;1.50;;;11.30;99.90;12.60;97664.00;;;;5048327;28;20215;-65
2022/07/09 00:20:18;;;;;;;1.40;1.07;;;12.10;99.90;12.90;97666.00;;;;5047032;28;20220;-72
2022/07/09 00:23:07;;;;;;;1.60;1.10;;;12.10;99.90;13.20;97661.00;;;;5047451;28;20196;-67
2022/07/09 00:25:56;;;;;;;2.50;1.40;;;12.10;99.90;13.30;97654.00;;;;5047891;28;20211;-67
2022/07/09 00:28:45;;;;;;;2.50;1.53;;;12.10;99.90;13.30;97659.00;;;;5047800;28;20204;-67
2022/07/09 00:31:34;;;;;;;1.20;1.20;;;12.10;99.90;13.40;97649.00;;;;5048934;28;20624;-67
2022/07/09 00:34:24;;;;;;;1.73;1.20;;;12.10;99.90;12.80;97643.00;;;;5048039;28;20880;-68
2022/07/09 00:37:13;;;;;;;3.57;1.37;;;12.10;99.90;13.00;97650.00;;;;5041241;28;20820;-67
2022/07/09 00:40:02;;;;;;;1.90;1.00;;;11.90;99.90;12.80;97638.00;;;;5027753;28;20225;-68
2022/07/09 00:42:50;;;;;;;1.77;1.17;;;11.90;99.90;12.40;97650.00;;;;5028069;28;20598;-69
2022/07/09 00:45:39;;;;;;;2.17;1.20;;;11.80;99.90;12.40;97642.00;;;;5028794;28;20223;-68
2022/07/09 00:48:28;;;;;;;2.53;1.53;;;11.70;99.90;12.50;97632.00;;;;5027560;28;20205;-67
2022/07/09 00:51:20;;;;;;;1.73;1.63;;;11.60;99.90;12.40;97631.00;;;;5027805;28;20263;-68
2022/07/09 00:54:09;;;;;;;2.13;1.47;;;11.60;99.90;12.50;97630.00;;;;5028206;28;20208;-67
2022/07/09 00:56:58;;;;;;;1.30;1.20;;;11.60;99.90;12.60;97640.00;;;;5036786;28;20212;-67
2022/07/09 00:59:47;;;;;;;2.07;1.40;;;11.50;99.90;12.30;97630.00;;;;5047763;28;20220;-67
2022/07/09 01:02:36;;;;;;;1.40;1.30;;;11.50;99.90;11.90;97639.00;;;;5043358;28;20221;-68
2022/07/09 01:05:25;;;;;;;1.23;1.17;;;11.40;99.90;12.40;97644.00;;;;5048185;28;20201;-69
2022/07/09 01:08:15;;;;;;;1.63;1.20;;;11.40;99.90;12.30;97628.00;;;;5051025;28;20234;-66
2022/07/09 01:11:05;;;;;;;1.60;1.50;;;11.40;99.90;12.70;97639.00;;;;5051483;28;20236;-68
2022/07/09 01:13:54;;;;;;;1.30;1.20;;;11.50;99.90;12.50;97630.00;;;;5050725;28;20212;-69
2022/07/09 01:16:43;;;;;;;1.33;1.10;;;11.50;99.90;12.60;97633.00;;;;5051673;28;20205;-67
2022/07/09 01:19:33;;;;;;;1.70;1.50;;;11.50;99.90;12.50;97633.00;;;;5049657;28;20601;-67
2022/07/09 01:22:23;;;;;;;2.77;1.50;;;11.50;99.90;12.50;97624.00;;;;5050583;28;20231;-67
2022/07/09 01:25:17;;;;;;;1.87;1.40;;;11.40;99.90;12.30;97617.00;;;;5051396;28;20211;-67
2022/07/09 01:28:09;;;;;;;2.77;1.60;;;11.40;99.90;12.40;97621.00;;;;5051170;28;20201;-66
2022/07/09 01:30:58;;;;;;;1.27;1.13;;;11.40;99.90;12.30;97607.00;;;;5039111;28;20298;-69
2022/07/09 01:33:47;;;;;;;9.03;2.13;;;11.40;99.90;12.90;97613.00;;;;5050815;28;20220;-67
2022/07/09 01:36:36;;;;;;;1.60;1.40;;;11.50;99.90;12.60;97609.00;;;;5049209;28;20228;-67
2022/07/09 01:39:26;;;;;;;2.17;1.57;;;11.50;99.90;12.70;97599.00;;;;5031152;28;20602;-66
2022/07/09 01:42:15;;;;;;;1.40;1.30;;;11.60;99.90;12.50;97593.00;;;;5030253;28;20229;-66
2022/07/09 01:45:04;;;;;;;1.43;1.33;;;11.60;99.90;12.70;97592.00;;;;5031594;28;20216;-67
2022/07/09 01:47:53;;;;;;;1.90;1.63;;;11.60;99.90;11.90;97589.00;;;;5029347;28;20223;-68
2022/07/09 01:50:42;;;;;;;1.53;1.30;;;11.50;99.90;11.90;97594.00;;;;5031120;28;20225;-65
2022/07/09 01:53:33;;;;;;;2.57;1.40;;;11.40;99.90;12.20;97598.00;;;;5038094;28;20204;-68
2022/07/09 01:56:23;;;;;;;1.23;1.13;;;11.30;99.90;12.60;97603.00;;;;5050732;28;20215;-67
2022/07/09 01:59:12;;;;;;;5.53;1.70;;;11.30;99.90;12.90;97599.00;;;;5049244;28;20565;-67
2022/07/09 02:02:01;;;;;;;1.77;1.63;;;11.40;99.90;12.00;97579.00;;;;5050828;28;20715;-67
2022/07/09 02:04:50;;;;;;;1.50;1.17;;;11.50;99.90;12.30;97588.00;;;;5037719;28;20235;-69
2022/07/09 02:07:39;;;;;;;1.50;1.40;;;11.40;99.90;12.30;97575.00;;;;5050496;28;20216;-67
2022/07/09 02:10:28;;;;;;;1.47;1.40;;;11.40;99.90;12.70;97582.00;;;;5051344;28;20228;-67
2022/07/09 02:13:19;;;;;;;1.77;1.10;;;11.40;99.90;12.50;97589.00;;;;5050967;28;20204;-68
2022/07/09 02:16:08;;;;;;;1.67;1.40;;;11.40;99.90;12.20;97594.00;;;;5051165;28;20201;-67
2022/07/09 02:18:57;;;;;;;1.83;1.17;;;11.40;99.90;11.90;97586.00;;;;5050412;28;20286;-71
2022/07/09 02:21:46;;;;;;;2.17;1.60;;;11.30;99.90;12.20;97584.00;;;;5050061;28;20208;-66
2022/07/09 02:24:34;;;;;;;2.33;2.03;;;11.20;99.90;12.20;97586.00;;;;5050193;28;20205;-67
2022/07/09 02:27:23;;;;;;;3.67;1.60;;;11.20;99.90;12.30;97588.00;;;;5049640;28;20219;-67
2022/07/09 02:30:13;;;;;;;1.70;1.60;;;11.20;99.90;11.70;97585.00;;;;5045260;28;20217;-64
2022/07/09 02:33:03;;;;;;;3.17;1.30;;;11.10;99.90;11.30;97577.00;;;;5050332;28;20215;-66
2022/07/09 02:35:52;;;;;;;1.87;1.50;;;10.90;99.90;11.60;97588.00;;;;5049028;28;20208;-64
2022/07/09 02:38:40;;;;;;;2.07;1.63;;;10.80;99.90;12.10;97582.00;;;;5032576;28;20216;-67
2022/07/09 02:41:29;;;;;;;2.70;1.30;;;10.90;99.90;11.80;97583.00;;;;5030230;28;20205;-69
2022/07/09 02:44:18;;;;;;;1.80;1.70;;;10.90;99.90;12.10;97586.00;;;;5029208;28;20197;-69
2022/07/09 02:47:08;;;;;;;1.87;1.40;;;10.90;99.90;12.10;97584.00;;;;5035041;28;20212;-68
2022/07/09 02:49:57;;;;;;;1.20;1.10;;;10.90;99.90;12.10;97582.00;;;;5049683;28;20790;-67
2022/07/09 02:52:46;;;;;;;1.50;1.40;;;10.90;99.90;12.10;97581.00;;;;5048872;28;20207;-68
2022/07/09 02:55:35;;;;;;;4.00;1.73;;;11.00;99.90;12.30;97593.00;;;;5049893;28;20204;-68
2022/07/09 02:58:23;;;;;;;1.40;1.30;;;11.00;99.90;11.60;97574.00;;;;5048819;28;20212;-68
2022/07/09 03:01:12;;;;;;;2.73;1.83;;;11.00;99.90;11.90;97575.00;;;;5049430;28;20586;-68
2022/07/09 03:04:02;;;;;;;1.70;1.40;;;10.90;99.90;12.10;97572.00;;;;5050047;28;20227;-68
2022/07/09 03:06:51;;;;;;;2.90;1.67;;;10.90;99.90;11.50;97581.00;;;;5049438;28;21078;-66
2022/07/09 03:09:40;;;;;;;1.97;1.30;;;10.90;99.90;10.80;97583.00;;;;5047662;28;20232;-72
2022/07/09 03:12:28;;;;;;;1.60;1.50;;;10.70;99.90;10.90;97580.00;;;;5048779;28;20204;-65
2022/07/09 03:15:17;;;;;;;1.80;1.70;;;10.50;99.90;11.40;97575.00;;;;5049313;28;20212;-67
2022/07/09 03:18:08;;;;;;;1.57;1.47;;;10.50;99.90;11.90;97591.00;;;;5048847;28;20684;-67
2022/07/09 03:20:58;;;;;;;3.07;1.43;;;10.60;99.90;12.00;97589.00;;;;5036412;28;20237;-67
2022/07/09 03:23:46;;;;;;;2.17;1.70;;;10.70;99.90;12.10;97587.00;;;;5048670;28;20237;-67
2022/07/09 03:26:36;;;;;;;2.23;1.83;;;10.70;99.90;12.20;97589.00;;;;5037568;28;20213;-67
2022/07/09 03:29:24;;;;;;;1.23;1.13;;;10.80;99.90;11.80;97576.00;;;;5048369;28;20231;-67
2022/07/09 03:32:13;;;;;;;6.87;1.37;;;10.80;99.90;11.60;97587.00;;;;5045514;28;20600;-67
2022/07/09 03:35:02;;;;;;;1.50;1.40;;;10.80;99.90;11.90;97588.00;;;;5049459;28;20572;-67
2022/07/09 03:37:52;;;;;;;1.70;1.60;;;10.80;99.90;11.50;97575.00;;;;5037714;28;20216;-67
2022/07/09 03:40:41;;;;;;;2.80;1.30;;;10.70;99.90;11.50;97582.00;;;;5028522;28;20221;-68
2022/07/09 03:43:30;;;;;;;2.37;1.70;;;10.60;99.90;11.20;97583.00;;;;5028938;28;20229;-65
2022/07/09 03:46:18;;;;;;;1.50;1.40;;;10.60;99.90;10.80;97584.00;;;;5026930;28;20205;-66
2022/07/09 03:49:08;;;;;;;1.47;1.17;;;10.40;99.90;10.80;97586.00;;;;5036724;28;20219;-68
2022/07/09 03:51:57;;;;;;;4.57;2.07;;;10.20;99.90;11.50;97587.00;;;;5048933;28;20204;-67
2022/07/09 03:55:00;;;;;;;3.03;1.60;;;10.20;99.90;11.70;97595.00;;;;5049046;28;20271;-67
2022/07/09 03:57:49;;;;;;;1.60;1.50;;;10.30;99.90;10.90;97584.00;;;;5046061;28;20621;-69
2022/07/09 04:00:38;;;;;;;2.50;1.53;;;10.30;99.90;11.40;97582.00;;;;5040642;28;20235;-67
2022/07/09 04:03:28;;;;;;;3.10;1.80;;;10.40;99.90;11.50;97576.00;;;;5048322;28;20243;-69
2022/07/09 04:06:17;;;;;;;1.27;1.17;;;10.40;99.90;11.60;97580.00;;;;5048788;28;20200;-67
2022/07/09 04:09:06;;;;;;;1.63;1.53;;;10.50;99.90;12.00;97576.00;;;;5047750;28;20209;-67
2022/07/09 04:11:56;;;;;;;1.90;1.80;;;10.60;99.90;11.80;97584.00;;;;5048330;28;20679;-67
2022/07/09 04:14:44;;;;;;;3.87;1.90;;;10.70;99.90;11.90;97580.00;;;;5048351;28;20209;-68
2022/07/09 04:17:34;;;;;;;4.57;1.50;;;10.80;99.90;12.10;97565.00;;;;5047999;28;20211;-67
2022/07/09 04:20:25;;;;;;;1.70;1.40;;;10.80;99.90;12.10;97567.00;;;;5048879;28;20225;-68
2022/07/09 04:23:14;;;;;;;3.57;1.67;;;10.90;99.90;12.30;97575.00;;;;5047222;28;20224;-68
2022/07/09 04:26:03;;;;;;;2.37;1.53;;;11.00;99.90;12.30;97573.00;;;;5047003;28;20206;-68
2022/07/09 04:28:53;;;;;;;6.37;1.70;;;11.00;99.90;12.40;97580.00;;;;5041820;28;21004;-68
2022/07/09 04:31:42;;;;;;;2.30;2.10;;;11.10;99.90;12.70;97578.00;;;;5047922;28;20201;-68
2022/07/09 04:34:31;;;;;;;2.00;1.90;;;11.20;99.90;12.80;97579.00;;;;5048163;28;20232;-68
2022/07/09 04:37:20;;;;;;;1.53;1.43;;;11.30;99.90;12.70;97581.00;;;;5047799;28;20201;-69
2022/07/09 04:40:10;;;;;;;2.50;1.80;;;11.40;99.90;13.10;97586.00;;;;5048268;28;20236;-67
2022/07/09 04:42:59;;;;;;;2.93;1.40;;;11.50;99.90;13.30;97580.00;;;;5050312;28;20208;-68
2022/07/09 04:45:49;;;;;;;2.67;1.87;;;11.60;99.90;13.50;97581.00;;;;5051216;28;20216;-68
2022/07/09 04:48:38;;;;;;;2.83;1.70;;;11.70;99.90;13.50;97584.00;;;;5051568;28;20200;-68
2022/07/09 04:51:27;;;;;;;4.40;1.90;;;11.90;99.90;13.80;97588.00;;;;5052531;28;20212;-68
2022/07/09 04:54:15;;;;;;;1.60;1.40;;;12.00;99.90;13.90;97581.00;;;;5051565;28;20231;-68
2022/07/09 04:57:05;;;;;;;2.10;1.90;;;12.10;99.90;14.00;97575.00;;;;5051574;28;20619;-68
2022/07/09 04:59:58;;;;;;;2.07;1.80;;;12.30;99.90;14.10;97582.00;;;;5051419;28;20623;-68
2022/07/09 05:02:49;;;;;;;4.67;1.70;;;12.50;99.90;14.10;97568.00;;;;5047596;28;20204;-68
2022/07/09 05:05:38;;;;;;;1.60;1.50;;;12.50;99.90;14.60;97566.00;;;;5052191;28;20217;-68
2022/07/09 05:08:30;;;;;;;2.40;2.20;;;12.70;99.90;14.80;97569.00;;;;5051053;28;20781;-68
2022/07/09 05:11:19;;;;;;;2.10;1.53;;;12.90;99.90;14.50;97566.00;;;;5032130;28;20210;-69
2022/07/09 05:14:08;;;;;;;1.73;1.63;;;13.10;99.90;14.90;97573.00;;;;5030221;28;20232;-67
2022/07/09 05:16:56;;;;;;;1.87;1.70;;;13.20;99.90;15.10;97563.00;;;;5031310;28;20220;-67
2022/07/09 05:19:47;;;;;;;2.37;1.90;;;13.40;99.90;15.50;97561.00;;;;5044610;28;20217;-67
2022/07/09 05:22:37;;;;;;;3.00;2.00;;;13.60;99.90;15.40;97568.00;;;;5049353;28;20212;-67
2022/07/09 05:25:26;;;;;;;2.30;1.90;;;13.70;99.90;15.90;97558.00;;;;5047715;28;20228;-67
2022/07/09 05:28:15;;;;;;;5.80;1.80;;;13.90;99.90;16.10;97568.00;;;;5048856;28;20588;-67
2022/07/09 05:31:04;;;;;;;1.70;1.60;;;14.10;99.90;16.40;97570.00;;;;5038964;28;20225;-67
2022/07/09 05:34:14;;;;;;;3.10;1.77;;;14.40;99.90;16.60;97569.00;;;;5047345;28;20203;-67
2022/07/09 05:37:05;;;;;;;8.00;1.43;;;14.60;99.90;16.80;97571.00;;;;5050666;28;20196;-67
2022/07/09 05:39:58;;;;;;;2.33;1.50;;;14.80;99.90;16.70;97556.00;;;;5049791;28;20278;-67
2022/07/09 05:42:46;;;;;;;2.23;1.70;;;15.00;99.90;16.60;97563.00;;;;5039002;28;20204;-67
2022/07/09 05:45:35;;;;;;;2.57;1.80;;;15.00;99.90;16.50;97550.00;;;;5039965;28;20224;-67
2022/07/09 05:48:24;;;;;;;6.53;1.90;;;15.20;99.90;17.10;97545.00;;;;5047119;28;20302;-67
2022/07/09 05:51:13;;;;;;;3.03;2.00;;;15.20;99.90;17.40;97547.00;;;;5043663;28;20224;-67
2022/07/09 05:54:03;;;;;;;2.63;1.80;;;15.40;99.90;17.50;97547.00;;;;5038010;28;20212;-67
2022/07/09 05:56:52;;;;;;;1.00;1.00;;;15.60;99.90;18.10;97544.00;;;;5039602;28;20216;-67
2022/07/09 05:59:41;;;;;;;1.03;0.97;;;15.90;99.90;18.70;97538.00;;;;5046134;28;20213;-64
2022/07/09 06:02:30;;;;;;;1.90;1.17;;;16.30;99.90;19.10;97547.00;;;;5049438;28;20212;-66
2022/07/09 06:05:19;;;;;;;1.30;1.00;;;16.60;99.90;19.30;97536.00;;;;5039491;28;20711;-66
2022/07/09 06:08:09;;;;;;;3.97;1.00;;;17.10;99.90;19.60;97547.00;;;;5044535;28;20239;-66
2022/07/09 06:10:59;;;;;;;3.30;0.90;;;17.40;99.90;19.70;97539.00;;;;5046214;28;20237;-66
2022/07/09 06:13:48;;;;;;;5.30;1.20;;;17.70;99.90;20.20;97541.00;;;;5047708;28;20212;-67
2022/07/09 06:16:37;;;;;;;1.17;0.93;;;18.00;99.90;20.30;97537.00;;;;5039060;28;20223;-67
2022/07/09 06:19:25;;;;;;;2.50;1.47;;;18.20;99.90;20.50;97550.00;;;;5048528;28;20228;-67
2022/07/09 06:22:14;;;;;;;1.50;1.00;;;18.40;99.90;20.60;97533.00;;;;5054683;28;20196;-67
2022/07/09 06:25:03;;;;;;;2.10;1.00;;;18.60;99.90;20.70;97549.00;;;;5042571;28;20219;-67
2022/07/09 06:27:54;;;;;;;2.67;0.97;;;18.80;99.90;20.90;97533.00;;;;5040189;28;20700;-68
2022/07/09 06:30:43;;;;;;;2.00;0.90;;;18.90;99.90;20.80;97539.00;;;;5047909;28;20229;-66
2022/07/09 06:33:32;;;;;;;1.57;1.30;;;19.00;99.90;21.00;97534.00;;;;5045111;28;20219;-68
2022/07/09 06:36:21;;;;;;;1.17;1.07;;;19.20;99.90;21.00;97534.00;;;;5049511;28;20670;-68
2022/07/09 06:42:18;;;;;;;1.20;1.03;;;19.40;99.10;21.70;97537.00;;;;5042944;28;20207;-68
2022/07/09 06:45:10;;;;;;;3.10;1.23;;;19.60;99.50;21.70;97539.00;;;;5034881;28;20234;-67
2022/07/09 06:47:59;;;;;;;1.50;0.97;;;19.70;99.20;20.90;97529.00;;;;5047462;28;20205;-68
2022/07/09 06:50:48;;;;;;;1.93;1.40;;;19.70;96.20;21.00;97542.00;;;;5044118;28;20232;-68
2022/07/09 06:53:37;;;;;;;1.00;0.80;;;19.80;97.80;20.70;97529.00;;;;5042374;28;20224;-68
2022/07/09 06:56:26;;;;;;;1.53;1.00;;;19.80;96.50;21.10;97541.00;;;;5029636;28;20209;-66
2022/07/09 06:59:15;;;;;;;2.40;1.43;;;19.80;96.00;21.50;97548.00;;;;5036848;28;20248;-66
2022/07/09 07:02:05;;;;;;;1.90;1.00;;;19.80;96.50;21.50;97545.00;;;;5048603;28;20193;-66
2022/07/09 07:04:54;;;;;;;1.00;0.90;;;19.90;95.80;21.40;97542.00;;;;5035292;28;20223;-68
2022/07/09 07:07:43;;;;;;;3.73;1.23;;;20.00;95.70;21.60;97548.00;;;;5047106;28;20205;-65
2022/07/09 07:10:32;;;;;;;2.00;1.00;;;20.00;95.70;21.20;97539.00;;;;5042053;28;20784;-65
2022/07/09 07:13:20;;;;;;;1.53;1.10;;;20.10;94.00;21.40;97536.00;;;;5048073;28;20569;-66
2022/07/09 07:16:09;;;;;;;2.17;1.10;;;20.10;93.90;21.60;97539.00;;;;5045633;28;20683;-65
2022/07/09 07:18:59;;;;;;;1.33;0.80;;;20.20;95.20;21.50;97539.00;;;;5046587;28;20699;-67
2022/07/09 07:21:48;;;;;;;2.63;1.10;;;20.20;94.00;21.50;97539.00;;;;5047858;28;20204;-65
2022/07/09 07:24:37;;;;;;;1.37;0.70;;;20.30;92.80;22.40;97537.00;;;;5049099;28;20230;-66
2022/07/09 07:27:26;;;;;;;3.60;1.00;;;20.40;92.80;22.70;97534.00;;;;5039018;28;20587;-66
2022/07/09 07:30:15;;;;;;;1.73;1.00;;;20.60;93.00;22.00;97540.00;;;;5046847;28;20231;-66
2022/07/09 07:33:04;;;;;;;1.57;0.80;;;20.70;91.60;22.50;97543.00;;;;5047051;28;20214;-67
2022/07/09 07:35:54;;;;;;;3.43;1.00;;;20.70;91.20;22.70;97532.00;;;;5044347;28;20201;-66
2022/07/09 07:38:44;;;;;;;2.67;1.20;;;20.90;91.10;21.90;97526.00;;;;5042262;28;20665;-67
2022/07/09 07:41:33;;;;;;;1.60;1.10;;;20.80;90.10;22.90;97527.00;;;;5042423;28;20198;-66
2022/07/09 07:44:22;;;;;;;1.73;1.13;;;21.00;90.30;23.30;97525.00;;;;5036617;28;20210;-65
2022/07/09 07:47:11;;;;;;;2.53;1.23;;;21.10;90.80;22.60;97530.00;;;;5043397;28;20591;-66
2022/07/09 07:50:00;;;;;;;2.00;1.03;;;21.20;90.00;21.40;97523.00;;;;5030312;28;20224;-69
2022/07/09 07:52:51;;;;;;;1.20;0.90;;;21.10;86.30;22.00;97533.00;;;;5032766;28;20200;-68
2022/07/09 07:55:40;;;;;;;3.30;0.70;;;21.00;87.50;22.20;97519.00;;;;5039014;28;20205;-65
2022/07/09 07:58:29;;;;;;;1.87;0.83;;;21.00;89.30;22.50;97503.00;;;;5036454;28;20196;-66
2022/07/09 08:01:17;;;;;;;1.43;0.93;;;21.00;87.00;21.90;97519.00;;;;5037846;28;20205;-66
2022/07/09 08:04:06;;;;;;;3.63;2.13;;;21.00;86.60;23.20;97533.00;;;;5037403;28;20687;-66
2022/07/09 08:06:55;;;;;;;2.20;1.07;;;21.20;87.40;22.90;97548.00;;;;5035494;28;20234;-65
2022/07/09 08:09:45;;;;;;;2.97;1.03;;;21.30;86.20;22.00;97512.00;;;;5040294;28;20233;-67
2022/07/09 08:12:34;;;;;;;2.50;1.20;;;21.20;82.70;22.30;97527.00;;;;5041580;28;20433;-66
2022/07/09 08:15:23;;;;;;;1.33;0.90;;;21.00;84.70;23.10;97531.00;;;;5047441;28;20200;-66
2022/07/09 08:18:13;;;;;;;1.83;1.10;;;21.20;85.50;22.80;97548.00;;;;5042094;28;20674;-67
2022/07/09 08:21:02;;;;;;;1.03;0.90;;;21.30;83.10;23.00;97533.00;;;;5040130;28;20282;-65
2022/07/09 08:23:55;;;;;;;1.67;1.10;;;21.30;84.70;22.30;97531.00;;;;5042628;28;20205;-67
2022/07/09 08:26:45;;;;;;;2.93;1.20;;;21.20;81.40;23.10;97528.00;;;;5039198;28;20254;-67
2022/07/09 08:29:34;;;;;;;0.63;0.63;;;21.30;82.70;22.30;97541.00;;;;5045083;28;20216;-68
2022/07/09 08:32:23;;;;;;;4.17;1.10;;;21.30;81.50;22.60;97513.00;;;;5046127;28;20197;-67
2022/07/09 08:35:12;;;;;;;0.70;0.70;;;21.30;81.50;22.40;97536.00;;;;5046889;28;20204;-69
2022/07/09 08:38:01;;;;;;;5.17;0.73;;;21.20;79.60;22.60;97532.00;;;;5045251;28;20201;-68
2022/07/09 08:40:50;;;;;;;3.50;1.03;;;21.20;77.40;22.90;97513.00;;;;5042987;28;20636;-67
2022/07/09 08:43:40;;;;;;;1.50;0.97;;;21.40;81.20;23.40;97498.00;;;;5043772;28;20207;-67
2022/07/09 08:46:29;;;;;;;0.90;0.60;;;21.60;81.80;23.70;97510.00;;;;5041472;28;20699;-68
2022/07/09 08:49:18;;;;;;;1.70;0.53;;;21.90;79.50;23.70;97502.00;;;;5040160;28;20276;-66
2022/07/09 08:52:08;;;;;;;3.23;1.00;;;21.90;79.60;22.80;97497.00;;;;5039039;28;20212;-71
2022/07/09 08:54:57;;;;;;;1.30;1.13;;;21.90;74.80;23.30;97494.00;;;;5041114;28;20197;-65
2022/07/09 08:57:46;;;;;;;1.13;0.77;;;21.90;76.00;24.20;97481.00;;;;5039772;28;20212;-68
2022/07/09 09:00:36;;;;;;;0.80;0.67;;;22.20;78.20;23.90;97490.00;;;;5039116;28;20232;-68
2022/07/09 09:03:26;;;;;;;1.47;0.73;;;22.30;76.30;23.90;97480.00;;;;5042729;28;20644;-70
2022/07/09 09:06:15;;;;;;;1.17;1.00;;;22.50;74.40;23.80;97524.00;;;;5040508;28;20221;-66
2022/07/09 09:09:04;;;;;;;1.40;0.67;;;22.50;76.50;23.70;97525.00;;;;5046730;28;20217;-67
2022/07/09 09:11:58;;;;;;;0.67;0.67;;;22.40;75.50;23.80;97528.00;;;;5038139;28;20215;-67
2022/07/09 09:14:50;;;;;;;2.40;1.00;;;22.40;77.10;24.60;97503.00;;;;5042844;28;20216;-67
2022/07/09 09:17:46;;;;;;;1.23;0.67;;;22.50;76.10;24.50;97481.00;;;;5045128;28;20193;-67
2022/07/09 09:20:35;;;;;;;0.50;0.50;;;22.60;78.60;24.00;97481.00;;;;5047422;28;20673;-69
2022/07/09 09:23:24;;;;;;;2.40;0.90;;;22.80;73.20;23.40;97477.00;;;;5047540;28;20220;-65
2022/07/09 09:26:14;;;;;;;0.90;0.73;;;22.60;71.90;25.10;97492.00;;;;5045591;28;20228;-67
2022/07/09 09:29:05;;;;;;;2.07;0.73;;;22.80;74.90;25.20;97486.00;;;;5042898;28;20211;-67
2022/07/09 09:31:54;;;;;;;1.80;0.80;;;23.00;75.00;25.40;97469.00;;;;5040473;28;20205;-70
2022/07/09 09:34:50;;;;;;;1.63;0.90;;;23.30;73.70;25.60;97522.00;;;;5049846;28;20204;-67
2022/07/09 09:37:39;;;;;;;3.73;1.17;;;23.50;74.90;23.40;97521.00;;;;5045097;28;20205;-69
2022/07/09 09:40:28;;;;;;;2.70;0.90;;;23.10;70.70;24.10;97468.00;;;;5050805;28;20699;-69
2022/07/09 09:43:23;;;;;;;1.83;0.70;;;23.00;69.60;25.20;97479.00;;;;5046296;28;20193;-66
2022/07/09 09:46:12;;;;;;;1.17;0.57;;;23.20;72.80;24.70;97479.00;;;;5044779;28;20224;-66
2022/07/09 09:49:02;;;;;;;1.73;0.90;;;23.40;66.90;24.60;97511.00;;;;5041996;28;20855;-68
2022/07/09 09:52:03;;;;;;;4.73;1.20;;;23.50;69.10;25.30;97471.00;;;;5046454;28;20207;-66
2022/07/09 09:54:53;;;;;;;1.53;0.90;;;23.50;69.60;26.00;97467.00;;;;5045680;28;20200;-67
2022/07/09 09:57:42;;;;;;;4.03;1.10;;;23.90;69.20;25.40;97492.00;;;;5041665;28;20212;-67
2022/07/09 10:00:31;;;;;;;1.27;1.00;;;23.80;67.10;25.80;97456.00;;;;5035960;28;20221;-66
2022/07/09 10:03:22;;;;;;;1.47;1.00;;;24.00;67.40;25.10;97454.00;;;;5038693;28;20265;-64
2022/07/09 10:06:11;;;;;;;0.97;0.73;;;24.10;65.90;24.80;97491.00;;;;5047002;28;20225;-67
2022/07/09 10:09:02;;;;;;;3.00;1.00;;;23.90;65.70;24.70;97458.00;;;;5044949;28;20204;-70
2022/07/09 10:11:51;;;;;;;1.00;0.70;;;23.70;64.80;25.50;97511.00;;;;5044423;28;20197;-67
2022/07/09 10:14:40;;;;;;;1.60;0.70;;;23.80;67.90;26.40;97453.00;;;;5041529;28;20296;-67
2022/07/09 10:17:39;;;;;;;2.17;0.80;;;24.00;68.40;26.60;97452.00;;;;5046579;28;20197;-67
2022/07/09 10:20:33;;;;;;;1.33;0.60;;;24.30;68.30;26.40;97442.00;;;;5045458;28;20232;-67
2022/07/09 10:23:23;;;;;;;4.10;0.93;;;24.50;62.90;26.60;97429.00;;;;5040486;28;20197;-67
2022/07/09 10:26:13;;;;;;;0.83;0.70;;;24.70;64.40;25.10;97439.00;;;;5045966;28;20231;-68
2022/07/09 10:29:02;;;;;;;3.07;0.90;;;24.70;63.20;26.60;97435.00;;;;5043495;28;20219;-67
2022/07/09 10:31:51;;;;;;;3.43;0.90;;;24.80;65.20;25.20;97422.00;;;;5045967;28;20219;-68
2022/07/09 10:35:01;;;;;;;3.03;0.87;;;24.80;61.50;26.20;97417.00;;;;5047170;28;20204;-67
2022/07/09 10:37:54;;;;;;;1.47;0.97;;;25.00;65.00;27.40;97446.00;;;;5045905;28;20208;-68
2022/07/09 10:40:46;;;;;;;2.40;0.80;;;25.20;63.20;27.20;97437.00;;;;5036144;28;20220;-68
2022/07/09 10:43:46;;;;;;;0.60;0.60;;;25.30;62.50;27.10;97415.00;;;;5049511;28;20682;-68
2022/07/09 10:46:35;;;;;;;2.50;1.00;;;25.40;61.10;24.80;97437.00;;;;5042542;28;20223;-68
2022/07/09 10:49:25;;;;;;;1.57;0.60;;;25.40;58.00;26.50;97440.00;;;;5043016;28;20227;-68
2022/07/09 10:52:14;;;;;;;1.10;0.93;;;24.90;58.80;26.30;97478.00;;;;5045662;28;20200;-66
2022/07/09 10:55:03;;;;;;;1.57;1.00;;;24.70;60.90;25.40;97467.00;;;;5046487;28;20656;-67
2022/07/09 10:57:53;;;;;;;0.93;0.43;;;24.50;61.30;25.80;97468.00;;;;5044813;28;20196;-67
2022/07/09 11:00:43;;;;;;;0.83;0.63;;;24.50;61.50;25.10;97460.00;;;;5039754;28;20722;-66
2022/07/09 11:03:33;;;;;;;2.90;1.10;;;24.30;61.70;25.60;97441.00;;;;5039513;28;20213;-67
2022/07/09 11:06:22;;;;;;;0.57;0.50;;;24.20;63.30;26.20;97435.00;;;;5038462;28;20701;-67
2022/07/09 11:09:14;;;;;;;1.70;0.60;;;24.30;62.70;26.80;97405.00;;;;5042391;28;20236;-66
2022/07/09 11:12:03;;;;;;;0.90;0.63;;;24.60;62.90;28.00;97402.00;;;;5036403;28;20216;-67
2022/07/09 11:14:52;;;;;;;1.43;0.70;;;25.20;63.90;27.30;97396.00;;;;5037881;28;20207;-66
2022/07/09 11:17:42;;;;;;;1.13;0.63;;;25.40;61.30;28.30;97382.00;;;;5046665;28;20208;-66
2022/07/09 11:20:34;;;;;;;1.47;0.57;;;25.80;61.00;28.00;97378.00;;;;5039509;28;20223;-66
2022/07/09 11:23:23;;;;;;;0.53;0.50;;;26.10;60.00;28.10;97386.00;;;;5047331;28;20198;-66
2022/07/09 11:26:11;;;;;;;2.03;0.50;;;26.30;60.90;27.70;97388.00;;;;5043923;28;20195;-67
2022/07/09 11:29:00;;;;;;;3.17;0.73;;;26.40;60.30;27.50;97450.00;;;;5038858;28;20281;-66
2022/07/09 11:31:50;;;;;;;1.20;1.03;;;26.20;57.90;28.40;97358.00;;;;5044375;28;20654;-66
2022/07/09 11:34:51;;;;;;;2.10;1.90;;;26.30;59.40;28.20;97457.00;;;;5046127;28;20201;-67
2022/07/09 11:37:46;;;;;;;1.00;0.93;;;26.50;60.00;26.60;97360.00;;;;5040405;28;20199;-67
2022/07/09 11:40:34;;;;;;;1.00;0.70;;;26.10;56.70;25.90;97354.00;;;;5028488;28;20219;-67
2022/07/09 11:43:23;;;;;;;1.73;0.80;;;25.90;57.50;28.20;97448.00;;;;5028858;28;20687;-68
2022/07/09 11:46:17;;;;;;;1.97;0.63;;;26.00;58.10;28.60;97337.00;;;;5029769;28;20215;-67
2022/07/09 11:49:16;;;;;;;2.93;0.80;;;26.10;59.00;29.20;97346.00;;;;5045625;28;20205;-67
2022/07/09 11:52:19;;;;;;;10.23;3.00;;;26.50;57.90;28.60;97420.00;;;;5048983;28;20312;-68
2022/07/09 11:55:10;;;;;;;1.63;0.70;;;26.60;58.20;28.00;97417.00;;;;5047968;28;20682;-67
2022/07/09 11:58:03;;;;;;;1.30;0.67;;;26.40;58.00;28.60;97405.00;;;;5039508;28;20567;-67
2022/07/09 12:00:52;;;;;;;0.73;0.57;;;26.50;58.80;28.40;97398.00;;;;5045035;28;20217;-67
2022/07/09 12:03:48;;;;;;;0.83;0.50;;;26.50;57.00;28.60;97335.00;;;;5048132;28;20205;-67
2022/07/09 12:06:49;;;;;;;1.40;0.60;;;26.80;57.10;29.00;97325.00;;;;5048381;28;20250;-67
2022/07/09 12:09:39;;;;;;;1.20;0.77;;;27.10;55.90;27.20;97394.00;;;;5042824;28;20245;-67
2022/07/09 12:12:29;;;;;;;2.47;0.70;;;26.90;55.50;26.20;97287.00;;;;5047141;28;20212;-68
2022/07/09 12:15:18;;;;;;;0.77;0.50;;;26.30;54.60;27.10;97389.00;;;;5048810;28;20207;-67
2022/07/09 12:18:06;;;;;;;1.57;0.50;;;25.90;56.00;26.10;97393.00;;;;5037864;28;20205;-66
2022/07/09 12:20:56;;;;;;;0.77;0.60;;;25.60;55.50;27.80;97328.00;;;;5047837;28;20228;-69
2022/07/09 12:23:44;;;;;;;1.40;0.67;;;26.00;55.50;28.90;97325.00;;;;5047781;28;20201;-68
2022/07/09 12:26:34;;;;;;;1.00;0.60;;;26.30;56.60;28.80;97330.00;;;;5046806;28;20211;-66
2022/07/09 12:29:23;;;;;;;3.67;0.80;;;26.60;55.70;28.50;97332.00;;;;5047156;28;20620;-67
2022/07/09 12:32:12;;;;;;;1.10;0.50;;;26.70;55.80;28.40;97318.00;;;;5048397;28;20201;-67
2022/07/09 12:35:01;;;;;;;0.60;0.50;;;27.00;55.10;29.40;97305.00;;;;5038024;28;20210;-69
2022/07/09 12:37:50;;;;;;;1.10;0.50;;;27.60;54.60;27.50;97311.00;;;;5043678;28;20609;-67